sensor_id;sensor_type;location;lat;lon;timestamp;temperature;humidity
6696;DHT22;3385;48.928;10.330;2022-11-20T00:01:09;3.60;99.90
6696;DHT22;3385;48.928;10.330;2022-11-20T00:03:35;3.70;99.90
6696;DHT22;3385;48.928;10.330;2022-11-20T00:06:02;3.80;99.90
6696;DHT22;3385;48.928;10.330;2022-11-20T00:08:28;3.80;99.90
6696;DHT22;3385;48.928;10.330;2022-11-20T00:10:54;3.70;99.90
6696;DHT22;3385;48.928;10.330;2022-11-20T00:13:19;3.80;99.90
6696;DHT22;3385;48.928;10.330;2022-11-20T00:15:45;3.80;99.90
6696;DHT22;3385;48.928;10.330;2022-11-20T00:18:11;3.90;99.90
6696;DHT22;3385;48.928;10.330;2022-11-20T00:20:36;3.90;99.90
6696;DHT22;3385;48.928;10.330;2022-11-20T00:23:02;5.30;99.90
6696;DHT22;3385;48.928;10.330;2022-11-20T00:25:28;4.00;99.90
6696;DHT22;3385;48.928;10.330;2022-11-20T00:27:54;4.00;99.90
6696;DHT22;3385;48.928;10.330;2022-11-20T00:30:19;4.00;99.90
6696;DHT22;3385;48.928;10.330;2022-11-20T00:32:45;4.00;99.90
6696;DHT22;3385;48.928;10.330;2022-11-20T00:35:11;4.00;99.90
6696;DHT22;3385;48.928;10.330;2022-11-20T00:37:37;4.10;99.90
6696;DHT22;3385;48.928;10.330;2022-11-20T00:40:03;4.10;99.90
6696;DHT22;3385;48.928;10.330;2022-11-20T00:42:29;4.10;99.90
6696;DHT22;3385;48.928;10.330;2022-11-20T00:44:54;4.10;99.90
6696;DHT22;3385;48.928;10.330;2022-11-20T00:47:20;4.10;99.90
6696;DHT22;3385;48.928;10.330;2022-11-20T00:49:46;4.20;99.90
6696;DHT22;3385;48.928;10.330;2022-11-20T00:52:11;4.10;99.90
6696;DHT22;3385;48.928;10.330;2022-11-20T00:54:37;4.20;99.90
6696;DHT22;3385;48.928;10.330;2022-11-20T00:57:03;4.20;99.90
6696;DHT22;3385;48.928;10.330;2022-11-20T00:59:28;4.30;99.90
6696;DHT22;3385;48.928;10.330;2022-11-20T01:01:54;4.20;99.90
6696;DHT22;3385;48.928;10.330;2022-11-20T01:04:20;4.30;99.90
6696;DHT22;3385;48.928;10.330;2022-11-20T01:06:46;4.30;99.90
6696;DHT22;3385;48.928;10.330;2022-11-20T01:09:13;4.30;99.90
6696;DHT22;3385;48.928;10.330;2022-11-20T01:11:43;4.30;99.90
6696;DHT22;3385;48.928;10.330;2022-11-20T01:14:17;4.30;99.90
6696;DHT22;3385;48.928;10.330;2022-11-20T01:16:45;4.30;99.90
6696;DHT22;3385;48.928;10.330;2022-11-20T01:19:18;4.30;99.90
6696;DHT22;3385;48.928;10.330;2022-11-20T01:21:47;4.40;99.90
6696;DHT22;3385;48.928;10.330;2022-11-20T01:24:14;4.50;99.90
6696;DHT22;3385;48.928;10.330;2022-11-20T01:26:42;4.40;99.90
6696;DHT22;3385;48.928;10.330;2022-11-20T01:29:17;4.50;99.90
6696;DHT22;3385;48.928;10.330;2022-11-20T01:31:44;4.50;99.90
6696;DHT22;3385;48.928;10.330;2022-11-20T01:34:13;4.40;99.90
6696;DHT22;3385;48.928;10.330;2022-11-20T01:36:40;4.50;99.90
6696;DHT22;3385;48.928;10.330;2022-11-20T01:39:11;4.50;99.90
6696;DHT22;3385;48.928;10.330;2022-11-20T01:41:37;4.40;99.90
6696;DHT22;3385;48.928;10.330;2022-11-20T01:44:42;4.40;99.90
6696;DHT22;3385;48.928;10.330;2022-11-20T01:47:09;4.40;99.90
6696;DHT22;3385;48.928;10.330;2022-11-20T01:49:40;4.40;99.90
6696;DHT22;3385;48.928;10.330;2022-11-20T01:52:17;4.50;99.90
6696;DHT22;3385;48.928;10.330;2022-11-20T01:55:11;4.50;99.90
6696;DHT22;3385;48.928;10.330;2022-11-20T01:57:38;4.40;99.90
6696;DHT22;3385;48.928;10.330;2022-11-20T02:00:11;4.50;99.90
6696;DHT22;3385;48.928;10.330;2022-11-20T02:02:39;4.40;99.90
6696;DHT22;3385;48.928;10.330;2022-11-20T02:05:27;4.50;99.90
6696;DHT22;3385;48.928;10.330;2022-11-20T02:07:55;4.40;99.90
6696;DHT22;3385;48.928;10.330;2022-11-20T02:10:23;4.50;99.90
6696;DHT22;3385;48.928;10.330;2022-11-20T02:12:49;4.40;99.90
6696;DHT22;3385;48.928;10.330;2022-11-20T02:15:33;4.40;99.90
6696;DHT22;3385;48.928;10.330;2022-11-20T02:18:00;4.40;99.90
6696;DHT22;3385;48.928;10.330;2022-11-20T02:20:25;4.40;99.90
6696;DHT22;3385;48.928;10.330;2022-11-20T02:23:05;4.40;99.90
6696;DHT22;3385;48.928;10.330;2022-11-20T02:25:35;4.40;99.90
6696;DHT22;3385;48.928;10.330;2022-11-20T02:28:02;4.40;99.90
6696;DHT22;3385;48.928;10.330;2022-11-20T02:30:28;4.40;99.90
6696;DHT22;3385;48.928;10.330;2022-11-20T02:32:54;4.40;99.90
6696;DHT22;3385;48.928;10.330;2022-11-20T02:37:48;4.30;99.90
6696;DHT22;3385;48.928;10.330;2022-11-20T02:40:15;4.30;99.90
6696;DHT22;3385;48.928;10.330;2022-11-20T02:42:41;4.30;99.90
6696;DHT22;3385;48.928;10.330;2022-11-20T02:45:07;4.30;99.90
6696;DHT22;3385;48.928;10.330;2022-11-20T02:47:33;4.30;99.90
6696;DHT22;3385;48.928;10.330;2022-11-20T02:49:59;4.30;99.90
6696;DHT22;3385;48.928;10.330;2022-11-20T02:52:25;4.30;99.90
6696;DHT22;3385;48.928;10.330;2022-11-20T02:54:51;4.30;99.90
6696;DHT22;3385;48.928;10.330;2022-11-20T02:57:17;4.30;99.90
6696;DHT22;3385;48.928;10.330;2022-11-20T02:59:42;4.30;99.90
6696;DHT22;3385;48.928;10.330;2022-11-20T03:02:08;4.30;99.90
6696;DHT22;3385;48.928;10.330;2022-11-20T03:04:34;4.20;99.90
6696;DHT22;3385;48.928;10.330;2022-11-20T03:07:00;4.20;99.90
6696;DHT22;3385;48.928;10.330;2022-11-20T03:09:26;4.20;99.90
6696;DHT22;3385;48.928;10.330;2022-11-20T03:11:51;4.20;99.90
6696;DHT22;3385;48.928;10.330;2022-11-20T03:14:17;4.10;99.90
6696;DHT22;3385;48.928;10.330;2022-11-20T03:16:43;4.10;99.90
6696;DHT22;3385;48.928;10.330;2022-11-20T03:19:09;4.10;99.90
6696;DHT22;3385;48.928;10.330;2022-11-20T03:21:35;4.10;99.90
6696;DHT22;3385;48.928;10.330;2022-11-20T03:24:01;4.10;99.90
6696;DHT22;3385;48.928;10.330;2022-11-20T03:26:27;4.10;99.90
6696;DHT22;3385;48.928;10.330;2022-11-20T03:29:01;4.10;99.90
6696;DHT22;3385;48.928;10.330;2022-11-20T03:31:33;4.10;99.90
6696;DHT22;3385;48.928;10.330;2022-11-20T03:33:59;4.10;99.90
6696;DHT22;3385;48.928;10.330;2022-11-20T03:36:26;4.20;99.90
6696;DHT22;3385;48.928;10.330;2022-11-20T03:38:53;4.10;99.90
6696;DHT22;3385;48.928;10.330;2022-11-20T03:41:22;4.10;99.90
6696;DHT22;3385;48.928;10.330;2022-11-20T03:43:59;4.10;99.90
6696;DHT22;3385;48.928;10.330;2022-11-20T03:46:26;4.20;99.90
6696;DHT22;3385;48.928;10.330;2022-11-20T03:48:52;4.10;99.90
6696;DHT22;3385;48.928;10.330;2022-11-20T03:51:26;4.10;99.90
6696;DHT22;3385;48.928;10.330;2022-11-20T03:53:53;4.10;99.90
6696;DHT22;3385;48.928;10.330;2022-11-20T03:56:23;4.10;99.90
6696;DHT22;3385;48.928;10.330;2022-11-20T03:58:49;4.10;99.90
6696;DHT22;3385;48.928;10.330;2022-11-20T04:01:18;4.10;99.90
6696;DHT22;3385;48.928;10.330;2022-11-20T04:03:44;4.10;99.90
6696;DHT22;3385;48.928;10.330;2022-11-20T04:06:25;4.10;99.90
6696;DHT22;3385;48.928;10.330;2022-11-20T04:08:53;4.10;99.90
6696;DHT22;3385;48.928;10.330;2022-11-20T04:11:25;4.00;99.90
6696;DHT22;3385;48.928;10.330;2022-11-20T04:13:56;4.00;99.90
6696;DHT22;3385;48.928;10.330;2022-11-20T04:16:23;4.00;99.90
6696;DHT22;3385;48.928;10.330;2022-11-20T04:18:56;4.00;99.90
6696;DHT22;3385;48.928;10.330;2022-11-20T04:21:22;4.10;99.90
6696;DHT22;3385;48.928;10.330;2022-11-20T04:23:49;4.10;99.90
6696;DHT22;3385;48.928;10.330;2022-11-20T04:26:15;4.10;99.90
6696;DHT22;3385;48.928;10.330;2022-11-20T04:28:41;4.10;99.90
6696;DHT22;3385;48.928;10.330;2022-11-20T04:31:13;4.10;99.90
6696;DHT22;3385;48.928;10.330;2022-11-20T04:33:40;4.10;99.90
6696;DHT22;3385;48.928;10.330;2022-11-20T04:36:10;4.10;99.90
6696;DHT22;3385;48.928;10.330;2022-11-20T04:38:36;4.10;99.90
6696;DHT22;3385;48.928;10.330;2022-11-20T04:41:05;4.10;99.90
6696;DHT22;3385;48.928;10.330;2022-11-20T04:43:32;4.10;99.90
6696;DHT22;3385;48.928;10.330;2022-11-20T04:45:59;4.00;99.90
6696;DHT22;3385;48.928;10.330;2022-11-20T04:48:26;4.00;99.90
6696;DHT22;3385;48.928;10.330;2022-11-20T04:50:53;4.00;99.90
6696;DHT22;3385;48.928;10.330;2022-11-20T04:53:18;3.90;99.90
6696;DHT22;3385;48.928;10.330;2022-11-20T04:55:45;3.90;99.90
6696;DHT22;3385;48.928;10.330;2022-11-20T04:58:11;3.90;99.90
6696;DHT22;3385;48.928;10.330;2022-11-20T05:00:36;3.90;99.90
6696;DHT22;3385;48.928;10.330;2022-11-20T05:03:02;3.90;99.90
6696;DHT22;3385;48.928;10.330;2022-11-20T05:05:28;3.90;99.90
6696;DHT22;3385;48.928;10.330;2022-11-20T05:07:57;4.00;99.90
6696;DHT22;3385;48.928;10.330;2022-11-20T05:10:23;4.00;99.90
6696;DHT22;3385;48.928;10.330;2022-11-20T05:12:49;4.00;99.90
6696;DHT22;3385;48.928;10.330;2022-11-20T05:15:15;4.00;99.90
6696;DHT22;3385;48.928;10.330;2022-11-20T05:17:41;4.00;99.90
6696;DHT22;3385;48.928;10.330;2022-11-20T05:20:07;4.00;99.90
6696;DHT22;3385;48.928;10.330;2022-11-20T05:22:33;4.00;99.90
6696;DHT22;3385;48.928;10.330;2022-11-20T05:24:58;4.00;99.90
6696;DHT22;3385;48.928;10.330;2022-11-20T05:27:24;4.00;99.90
6696;DHT22;3385;48.928;10.330;2022-11-20T05:29:50;4.00;99.90
6696;DHT22;3385;48.928;10.330;2022-11-20T05:32:15;4.00;99.90
6696;DHT22;3385;48.928;10.330;2022-11-20T05:34:41;4.00;99.90
6696;DHT22;3385;48.928;10.330;2022-11-20T05:37:07;4.00;99.90
6696;DHT22;3385;48.928;10.330;2022-11-20T05:39:32;4.10;99.90
6696;DHT22;3385;48.928;10.330;2022-11-20T05:41:58;4.00;99.90
6696;DHT22;3385;48.928;10.330;2022-11-20T05:44:42;4.10;99.90
6696;DHT22;3385;48.928;10.330;2022-11-20T05:47:08;4.00;99.90
6696;DHT22;3385;48.928;10.330;2022-11-20T05:49:33;4.00;99.90
6696;DHT22;3385;48.928;10.330;2022-11-20T05:51:59;4.00;99.90
6696;DHT22;3385;48.928;10.330;2022-11-20T05:54:25;4.10;99.90
6696;DHT22;3385;48.928;10.330;2022-11-20T05:56:50;4.10;99.90
6696;DHT22;3385;48.928;10.330;2022-11-20T05:59:16;4.00;99.90
6696;DHT22;3385;48.928;10.330;2022-11-20T06:01:42;4.10;99.90
6696;DHT22;3385;48.928;10.330;2022-11-20T06:04:07;4.10;99.90
6696;DHT22;3385;48.928;10.330;2022-11-20T06:06:33;4.10;99.90
6696;DHT22;3385;48.928;10.330;2022-11-20T06:08:59;4.10;99.90
6696;DHT22;3385;48.928;10.330;2022-11-20T06:11:25;4.10;99.90
6696;DHT22;3385;48.928;10.330;2022-11-20T06:13:51;4.10;99.90
6696;DHT22;3385;48.928;10.330;2022-11-20T06:16:19;4.00;99.90
6696;DHT22;3385;48.928;10.330;2022-11-20T06:18:46;4.10;99.90
6696;DHT22;3385;48.928;10.330;2022-11-20T06:21:14;4.10;99.90
6696;DHT22;3385;48.928;10.330;2022-11-20T06:23:40;4.10;99.90
6696;DHT22;3385;48.928;10.330;2022-11-20T06:26:08;4.10;99.90
6696;DHT22;3385;48.928;10.330;2022-11-20T06:28:35;4.10;99.90
6696;DHT22;3385;48.928;10.330;2022-11-20T06:31:01;4.10;99.90
6696;DHT22;3385;48.928;10.330;2022-11-20T06:33:27;4.10;99.90
6696;DHT22;3385;48.928;10.330;2022-11-20T06:35:56;4.10;99.90
6696;DHT22;3385;48.928;10.330;2022-11-20T06:38:23;4.20;99.90
6696;DHT22;3385;48.928;10.330;2022-11-20T06:40:49;4.10;99.90
6696;DHT22;3385;48.928;10.330;2022-11-20T06:43:14;4.20;99.90
6696;DHT22;3385;48.928;10.330;2022-11-20T06:45:40;4.20;99.90
6696;DHT22;3385;48.928;10.330;2022-11-20T06:48:06;4.20;99.90
6696;DHT22;3385;48.928;10.330;2022-11-20T06:50:32;4.20;99.90
6696;DHT22;3385;48.928;10.330;2022-11-20T06:53:01;4.20;99.90
6696;DHT22;3385;48.928;10.330;2022-11-20T06:55:27;4.30;99.90
6696;DHT22;3385;48.928;10.330;2022-11-20T06:57:53;4.30;99.90
6696;DHT22;3385;48.928;10.330;2022-11-20T07:00:19;4.20;99.90
6696;DHT22;3385;48.928;10.330;2022-11-20T07:02:44;4.20;99.90
6696;DHT22;3385;48.928;10.330;2022-11-20T07:05:10;4.30;99.90
6696;DHT22;3385;48.928;10.330;2022-11-20T07:07:36;4.30;99.90
6696;DHT22;3385;48.928;10.330;2022-11-20T07:10:02;4.30;99.90
6696;DHT22;3385;48.928;10.330;2022-11-20T07:12:27;4.40;99.90
6696;DHT22;3385;48.928;10.330;2022-11-20T07:14:53;4.40;99.90
6696;DHT22;3385;48.928;10.330;2022-11-20T07:17:19;4.40;99.90
6696;DHT22;3385;48.928;10.330;2022-11-20T07:19:44;4.50;99.90
6696;DHT22;3385;48.928;10.330;2022-11-20T07:22:10;4.50;99.90
6696;DHT22;3385;48.928;10.330;2022-11-20T07:24:36;4.50;99.90
6696;DHT22;3385;48.928;10.330;2022-11-20T07:27:02;4.60;99.90
6696;DHT22;3385;48.928;10.330;2022-11-20T07:29:27;4.60;99.90
6696;DHT22;3385;48.928;10.330;2022-11-20T07:31:53;4.70;99.90
6696;DHT22;3385;48.928;10.330;2022-11-20T07:34:20;4.70;99.90
6696;DHT22;3385;48.928;10.330;2022-11-20T07:36:46;4.80;99.90
6696;DHT22;3385;48.928;10.330;2022-11-20T07:39:12;4.80;99.90
6696;DHT22;3385;48.928;10.330;2022-11-20T07:41:37;4.80;99.90
6696;DHT22;3385;48.928;10.330;2022-11-20T07:44:03;4.90;99.90
6696;DHT22;3385;48.928;10.330;2022-11-20T07:46:29;5.00;99.90
6696;DHT22;3385;48.928;10.330;2022-11-20T07:48:55;5.10;99.90
6696;DHT22;3385;48.928;10.330;2022-11-20T07:51:20;5.20;99.90
6696;DHT22;3385;48.928;10.330;2022-11-20T07:53:46;5.10;99.90
6696;DHT22;3385;48.928;10.330;2022-11-20T07:56:12;5.10;99.90
6696;DHT22;3385;48.928;10.330;2022-11-20T07:58:39;5.00;99.90
6696;DHT22;3385;48.928;10.330;2022-11-20T08:01:06;5.00;99.90
6696;DHT22;3385;48.928;10.330;2022-11-20T08:03:32;5.00;99.90
6696;DHT22;3385;48.928;10.330;2022-11-20T08:05:59;4.90;99.90
6696;DHT22;3385;48.928;10.330;2022-11-20T08:08:26;5.00;99.90
6696;DHT22;3385;48.928;10.330;2022-11-20T08:10:52;5.00;99.90
6696;DHT22;3385;48.928;10.330;2022-11-20T08:13:18;5.10;99.90
6696;DHT22;3385;48.928;10.330;2022-11-20T08:16:02;5.10;99.90
6696;DHT22;3385;48.928;10.330;2022-11-20T08:18:28;5.10;99.90
6696;DHT22;3385;48.928;10.330;2022-11-20T08:20:53;5.20;99.90
6696;DHT22;3385;48.928;10.330;2022-11-20T08:23:19;5.10;99.90
6696;DHT22;3385;48.928;10.330;2022-11-20T08:25:49;5.10;99.90
6696;DHT22;3385;48.928;10.330;2022-11-20T08:28:15;5.10;99.90
6696;DHT22;3385;48.928;10.330;2022-11-20T08:30:40;5.00;99.90
6696;DHT22;3385;48.928;10.330;2022-11-20T08:33:08;5.00;99.90
6696;DHT22;3385;48.928;10.330;2022-11-20T08:35:37;5.00;99.90
6696;DHT22;3385;48.928;10.330;2022-11-20T08:38:06;5.10;99.90
6696;DHT22;3385;48.928;10.330;2022-11-20T08:40:33;5.10;99.90
6696;DHT22;3385;48.928;10.330;2022-11-20T08:42:59;5.10;99.90
6696;DHT22;3385;48.928;10.330;2022-11-20T08:45:24;5.10;99.90
6696;DHT22;3385;48.928;10.330;2022-11-20T08:47:50;5.10;99.90
6696;DHT22;3385;48.928;10.330;2022-11-20T08:50:17;5.20;99.90
6696;DHT22;3385;48.928;10.330;2022-11-20T08:52:43;5.20;99.90
6696;DHT22;3385;48.928;10.330;2022-11-20T08:55:09;5.30;99.90
6696;DHT22;3385;48.928;10.330;2022-11-20T08:57:36;5.40;99.90
6696;DHT22;3385;48.928;10.330;2022-11-20T09:00:03;5.40;99.90
6696;DHT22;3385;48.928;10.330;2022-11-20T09:02:30;5.40;99.90
6696;DHT22;3385;48.928;10.330;2022-11-20T09:04:55;5.30;99.90
6696;DHT22;3385;48.928;10.330;2022-11-20T09:07:21;5.30;99.90
6696;DHT22;3385;48.928;10.330;2022-11-20T09:09:47;5.20;99.90
6696;DHT22;3385;48.928;10.330;2022-11-20T09:12:13;5.20;99.90
6696;DHT22;3385;48.928;10.330;2022-11-20T09:14:39;5.10;99.90
6696;DHT22;3385;48.928;10.330;2022-11-20T09:17:05;5.20;99.90
6696;DHT22;3385;48.928;10.330;2022-11-20T09:19:33;5.20;99.90
6696;DHT22;3385;48.928;10.330;2022-11-20T09:21:58;5.10;99.90
6696;DHT22;3385;48.928;10.330;2022-11-20T09:24:26;5.10;99.90
6696;DHT22;3385;48.928;10.330;2022-11-20T09:26:51;5.10;99.90
6696;DHT22;3385;48.928;10.330;2022-11-20T09:29:17;5.10;99.90
6696;DHT22;3385;48.928;10.330;2022-11-20T09:31:44;5.20;99.90
6696;DHT22;3385;48.928;10.330;2022-11-20T09:34:09;5.10;99.90
6696;DHT22;3385;48.928;10.330;2022-11-20T09:36:35;5.20;99.90
6696;DHT22;3385;48.928;10.330;2022-11-20T09:39:01;5.20;99.90
6696;DHT22;3385;48.928;10.330;2022-11-20T09:41:44;5.30;99.90
6696;DHT22;3385;48.928;10.330;2022-11-20T09:54:04;6.20;99.90
6696;DHT22;3385;48.928;10.330;2022-11-20T09:55:56;6.10;99.90
6696;DHT22;3385;48.928;10.330;2022-11-20T10:01:20;5.50;99.90
6696;DHT22;3385;48.928;10.330;2022-11-20T10:04:04;5.30;99.90
6696;DHT22;3385;48.928;10.330;2022-11-20T10:31:34;5.10;99.90
6696;DHT22;3385;48.928;10.330;2022-11-20T10:34:06;5.00;99.90
6696;DHT22;3385;48.928;10.330;2022-11-20T10:36:47;4.90;99.90
6696;DHT22;3385;48.928;10.330;2022-11-20T10:39:41;4.90;99.90
6696;DHT22;3385;48.928;10.330;2022-11-20T10:42:11;4.90;99.90
6696;DHT22;3385;48.928;10.330;2022-11-20T10:44:39;4.80;99.90
6696;DHT22;3385;48.928;10.330;2022-11-20T10:47:28;4.80;99.90
6696;DHT22;3385;48.928;10.330;2022-11-20T10:50:00;4.80;99.90
6696;DHT22;3385;48.928;10.330;2022-11-20T10:53:28;4.90;99.90
6696;DHT22;3385;48.928;10.330;2022-11-20T10:55:48;4.90;99.90
6696;DHT22;3385;48.928;10.330;2022-11-20T10:58:29;5.00;99.90
6696;DHT22;3385;48.928;10.330;2022-11-20T11:01:15;5.00;99.90
6696;DHT22;3385;48.928;10.330;2022-11-20T11:03:42;5.00;99.90
6696;DHT22;3385;48.928;10.330;2022-11-20T11:06:34;5.00;99.90
6696;DHT22;3385;48.928;10.330;2022-11-20T11:09:10;5.30;99.90
6696;DHT22;3385;48.928;10.330;2022-11-20T11:11:38;6.00;99.90
6696;DHT22;3385;48.928;10.330;2022-11-20T11:14:16;7.00;99.90
6696;DHT22;3385;48.928;10.330;2022-11-20T11:16:53;6.90;99.90
6696;DHT22;3385;48.928;10.330;2022-11-20T11:19:35;6.70;99.90
6696;DHT22;3385;48.928;10.330;2022-11-20T11:22:06;6.50;99.90
6696;DHT22;3385;48.928;10.330;2022-11-20T11:27:21;5.90;99.90
6696;DHT22;3385;48.928;10.330;2022-11-20T11:33:22;3.50;99.90
6696;DHT22;3385;48.928;10.330;2022-11-20T11:35:54;5.50;99.90
6696;DHT22;3385;48.928;10.330;2022-11-20T11:38:42;5.50;99.90
6696;DHT22;3385;48.928;10.330;2022-11-20T11:41:28;5.50;99.90
6696;DHT22;3385;48.928;10.330;2022-11-20T11:44:04;5.50;99.90
6696;DHT22;3385;48.928;10.330;2022-11-20T11:46:58;5.50;99.90
6696;DHT22;3385;48.928;10.330;2022-11-20T11:49:24;5.50;99.90
6696;DHT22;3385;48.928;10.330;2022-11-20T11:52:01;5.50;99.90
6696;DHT22;3385;48.928;10.330;2022-11-20T11:54:58;5.50;99.90
6696;DHT22;3385;48.928;10.330;2022-11-20T12:02:48;5.40;99.90
6696;DHT22;3385;48.928;10.330;2022-11-20T12:08:16;5.40;99.90
6696;DHT22;3385;48.928;10.330;2022-11-20T12:10:57;5.50;99.90
6696;DHT22;3385;48.928;10.330;2022-11-20T12:15:50;5.90;99.90
6696;DHT22;3385;48.928;10.330;2022-11-20T12:18:18;6.00;99.90
6696;DHT22;3385;48.928;10.330;2022-11-20T12:26:38;6.00;99.90
6696;DHT22;3385;48.928;10.330;2022-11-20T12:37:22;5.70;99.90
6696;DHT22;3385;48.928;10.330;2022-11-20T12:39:50;5.70;99.90
6696;DHT22;3385;48.928;10.330;2022-11-20T12:42:32;5.70;99.90
6696;DHT22;3385;48.928;10.330;2022-11-20T12:56:32;5.70;99.90
6696;DHT22;3385;48.928;10.330;2022-11-20T13:07:38;5.80;99.90
6696;DHT22;3385;48.928;10.330;2022-11-20T13:10:05;5.70;99.90
6696;DHT22;3385;48.928;10.330;2022-11-20T13:12:50;5.60;99.90
6696;DHT22;3385;48.928;10.330;2022-11-20T13:18:09;5.40;99.90
6696;DHT22;3385;48.928;10.330;2022-11-20T13:20:36;5.50;99.90
6696;DHT22;3385;48.928;10.330;2022-11-20T13:23:06;5.60;99.90
6696;DHT22;3385;48.928;10.330;2022-11-20T13:28:26;6.00;99.90
6696;DHT22;3385;48.928;10.330;2022-11-20T13:30:52;6.10;99.90
6696;DHT22;3385;48.928;10.330;2022-11-20T13:33:33;6.10;99.90
6696;DHT22;3385;48.928;10.330;2022-11-20T13:36:05;6.10;99.90
6696;DHT22;3385;48.928;10.330;2022-11-20T13:38:44;6.10;99.90
6696;DHT22;3385;48.928;10.330;2022-11-20T13:41:10;6.00;99.90
6696;DHT22;3385;48.928;10.330;2022-11-20T13:43:57;6.00;99.90
6696;DHT22;3385;48.928;10.330;2022-11-20T13:46:34;5.90;99.90
6696;DHT22;3385;48.928;10.330;2022-11-20T13:49:07;5.90;99.90
6696;DHT22;3385;48.928;10.330;2022-11-20T14:00:19;5.60;99.90
6696;DHT22;3385;48.928;10.330;2022-11-20T14:03:10;5.60;99.90
6696;DHT22;3385;48.928;10.330;2022-11-20T14:05:50;5.60;99.90
6696;DHT22;3385;48.928;10.330;2022-11-20T14:11:20;5.90;99.90
6696;DHT22;3385;48.928;10.330;2022-11-20T14:14:17;6.10;99.90
6696;DHT22;3385;48.928;10.330;2022-11-20T14:16:44;6.30;99.90
6696;DHT22;3385;48.928;10.330;2022-11-20T14:22:09;6.30;99.90
6696;DHT22;3385;48.928;10.330;2022-11-20T14:24:36;6.40;99.90
6696;DHT22;3385;48.928;10.330;2022-11-20T14:27:02;6.70;99.90
6696;DHT22;3385;48.928;10.330;2022-11-20T14:29:34;6.80;99.90
6696;DHT22;3385;48.928;10.330;2022-11-20T14:32:01;6.70;99.90
6696;DHT22;3385;48.928;10.330;2022-11-20T14:34:30;6.50;99.90
6696;DHT22;3385;48.928;10.330;2022-11-20T14:37:02;6.40;99.90
6696;DHT22;3385;48.928;10.330;2022-11-20T14:39:37;6.40;99.90
6696;DHT22;3385;48.928;10.330;2022-11-20T14:42:18;6.40;99.90
6696;DHT22;3385;48.928;10.330;2022-11-20T14:44:45;6.30;99.90
6696;DHT22;3385;48.928;10.330;2022-11-20T14:47:13;6.30;99.90
6696;DHT22;3385;48.928;10.330;2022-11-20T14:49:41;6.20;99.90
6696;DHT22;3385;48.928;10.330;2022-11-20T14:52:18;6.20;99.90
6696;DHT22;3385;48.928;10.330;2022-11-20T14:55:07;6.20;99.90
6696;DHT22;3385;48.928;10.330;2022-11-20T14:57:34;6.10;99.90
6696;DHT22;3385;48.928;10.330;2022-11-20T15:02:42;5.90;99.90
6696;DHT22;3385;48.928;10.330;2022-11-20T15:05:09;5.90;99.90
6696;DHT22;3385;48.928;10.330;2022-11-20T15:07:44;5.80;99.90
6696;DHT22;3385;48.928;10.330;2022-11-20T15:10:26;5.80;99.90
6696;DHT22;3385;48.928;10.330;2022-11-20T15:12:53;5.70;99.90
6696;DHT22;3385;48.928;10.330;2022-11-20T15:15:52;5.60;99.90
6696;DHT22;3385;48.928;10.330;2022-11-20T15:18:31;5.50;99.90
6696;DHT22;3385;48.928;10.330;2022-11-20T15:21:01;5.50;99.90
6696;DHT22;3385;48.928;10.330;2022-11-20T15:23:28;5.40;99.90
6696;DHT22;3385;48.928;10.330;2022-11-20T15:25:54;5.30;99.90
6696;DHT22;3385;48.928;10.330;2022-11-20T15:28:27;5.20;99.90
6696;DHT22;3385;48.928;10.330;2022-11-20T15:30:55;5.10;99.90
6696;DHT22;3385;48.928;10.330;2022-11-20T15:33:22;5.00;99.90
6696;DHT22;3385;48.928;10.330;2022-11-20T15:35:48;5.00;99.90
6696;DHT22;3385;48.928;10.330;2022-11-20T15:38:14;5.00;99.90
6696;DHT22;3385;48.928;10.330;2022-11-20T15:40:39;4.90;99.90
6696;DHT22;3385;48.928;10.330;2022-11-20T15:43:05;4.90;99.90
6696;DHT22;3385;48.928;10.330;2022-11-20T15:45:50;4.90;99.90
6696;DHT22;3385;48.928;10.330;2022-11-20T15:48:29;4.80;99.90
6696;DHT22;3385;48.928;10.330;2022-11-20T15:53:39;4.70;99.90
6696;DHT22;3385;48.928;10.330;2022-11-20T15:56:06;4.70;99.90
6696;DHT22;3385;48.928;10.330;2022-11-20T15:58:32;4.70;99.90
6696;DHT22;3385;48.928;10.330;2022-11-20T16:00:58;4.60;99.90
6696;DHT22;3385;48.928;10.330;2022-11-20T16:03:24;4.60;99.90
6696;DHT22;3385;48.928;10.330;2022-11-20T16:05:50;4.60;99.90
6696;DHT22;3385;48.928;10.330;2022-11-20T16:08:16;4.50;99.90
6696;DHT22;3385;48.928;10.330;2022-11-20T16:10:42;4.50;99.90
6696;DHT22;3385;48.928;10.330;2022-11-20T16:13:16;4.50;99.90
6696;DHT22;3385;48.928;10.330;2022-11-20T16:16:08;4.40;99.90
6696;DHT22;3385;48.928;10.330;2022-11-20T16:18:36;4.50;99.90
6696;DHT22;3385;48.928;10.330;2022-11-20T16:21:02;4.50;99.90
6696;DHT22;3385;48.928;10.330;2022-11-20T16:23:31;4.60;99.90
6696;DHT22;3385;48.928;10.330;2022-11-20T16:28:32;4.60;99.90
6696;DHT22;3385;48.928;10.330;2022-11-20T16:31:11;4.60;99.90
6696;DHT22;3385;48.928;10.330;2022-11-20T16:33:37;4.60;99.90
6696;DHT22;3385;48.928;10.330;2022-11-20T16:36:13;4.60;99.90
6696;DHT22;3385;48.928;10.330;2022-11-20T16:38:40;4.60;99.90
6696;DHT22;3385;48.928;10.330;2022-11-20T16:41:06;4.60;99.90
6696;DHT22;3385;48.928;10.330;2022-11-20T16:43:44;4.50;99.90
6696;DHT22;3385;48.928;10.330;2022-11-20T16:46:11;4.50;99.90
6696;DHT22;3385;48.928;10.330;2022-11-20T16:48:36;4.50;99.90
6696;DHT22;3385;48.928;10.330;2022-11-20T16:51:02;4.50;99.90
6696;DHT22;3385;48.928;10.330;2022-11-20T16:53:28;4.40;99.90
6696;DHT22;3385;48.928;10.330;2022-11-20T16:55:53;4.40;99.90
6696;DHT22;3385;48.928;10.330;2022-11-20T16:58:19;4.50;99.90
6696;DHT22;3385;48.928;10.330;2022-11-20T17:00:45;4.50;99.90
6696;DHT22;3385;48.928;10.330;2022-11-20T17:03:11;4.50;99.90
6696;DHT22;3385;48.928;10.330;2022-11-20T17:05:38;4.40;99.90
6696;DHT22;3385;48.928;10.330;2022-11-20T17:08:04;4.40;99.90
6696;DHT22;3385;48.928;10.330;2022-11-20T17:10:29;4.40;99.90
6696;DHT22;3385;48.928;10.330;2022-11-20T17:12:55;4.40;99.90
6696;DHT22;3385;48.928;10.330;2022-11-20T17:15:21;4.40;99.90
6696;DHT22;3385;48.928;10.330;2022-11-20T17:17:46;4.40;99.90
6696;DHT22;3385;48.928;10.330;2022-11-20T17:20:12;4.40;99.90
6696;DHT22;3385;48.928;10.330;2022-11-20T17:22:38;4.40;99.90
6696;DHT22;3385;48.928;10.330;2022-11-20T17:25:04;4.30;99.90
6696;DHT22;3385;48.928;10.330;2022-11-20T17:27:30;4.30;99.90
6696;DHT22;3385;48.928;10.330;2022-11-20T17:29:55;4.30;99.90
6696;DHT22;3385;48.928;10.330;2022-11-20T17:32:23;4.20;99.90
6696;DHT22;3385;48.928;10.330;2022-11-20T17:34:49;4.20;99.90
6696;DHT22;3385;48.928;10.330;2022-11-20T17:37:15;4.20;99.90
6696;DHT22;3385;48.928;10.330;2022-11-20T17:39:41;4.20;99.90
6696;DHT22;3385;48.928;10.330;2022-11-20T17:42:09;4.20;99.90
6696;DHT22;3385;48.928;10.330;2022-11-20T17:44:54;4.20;99.90
6696;DHT22;3385;48.928;10.330;2022-11-20T17:47:20;4.10;99.90
6696;DHT22;3385;48.928;10.330;2022-11-20T17:49:46;4.10;99.90
6696;DHT22;3385;48.928;10.330;2022-11-20T17:52:11;4.10;99.90
6696;DHT22;3385;48.928;10.330;2022-11-20T17:54:37;4.10;99.90
6696;DHT22;3385;48.928;10.330;2022-11-20T17:57:15;4.10;99.90
6696;DHT22;3385;48.928;10.330;2022-11-20T17:59:59;4.10;99.90
6696;DHT22;3385;48.928;10.330;2022-11-20T18:02:25;4.00;99.90
6696;DHT22;3385;48.928;10.330;2022-11-20T18:04:52;4.00;99.90
6696;DHT22;3385;48.928;10.330;2022-11-20T18:07:17;4.00;99.90
6696;DHT22;3385;48.928;10.330;2022-11-20T18:09:43;4.00;99.90
6696;DHT22;3385;48.928;10.330;2022-11-20T18:12:08;4.00;99.90
6696;DHT22;3385;48.928;10.330;2022-11-20T18:14:34;4.00;99.90